Crawfordsville, Oregon
Current Conditions -  °F | °C
As of 9:35 PM on Sunday 21 Dec 2014 (Local Time) from KCVO Reporting Station
Overcast Overcast  
Wind Chill: 12°   Ceiling: 3900
Heat Index: 12°   Visibility: 5mi
Dew Point:   Wind: 5mph
Humidity: 82%   Direction: 180°S
Pressure: 30.2"   Gusts: NA
Location:  44.36°N, 122.86°W
Report Text: KCVO 220535Z AUTO 18004KT 5SM OVC039 12/09 A3020 RMK AO1
Loading
Personal Weather Stations






























Interactive Weather Map New forecast layout! Learn more

10-Day Weather Forecast

Advertisements
Track Severe Weather on mobile